createdAt,value
2018-06-10T00:00:32.491Z,0.00
2018-06-10T00:01:32.693Z,0.00
2018-06-10T00:02:32.890Z,0.00
2018-06-10T00:03:33.074Z,0.00
2018-06-10T00:04:33.265Z,0.00
2018-06-10T00:05:33.475Z,0.00
2018-06-10T00:08:05.586Z,0.00
2018-06-10T00:09:05.765Z,0.00
2018-06-10T00:10:05.985Z,0.00
2018-06-10T00:11:06.196Z,0.00
2018-06-10T00:12:06.381Z,0.00
2018-06-10T00:13:06.574Z,0.00
2018-06-10T00:14:06.786Z,0.00
2018-06-10T00:15:06.998Z,0.00
2018-06-10T00:16:07.213Z,0.00
2018-06-10T00:17:07.425Z,0.00
2018-06-10T00:18:07.615Z,0.00
2018-06-10T00:19:07.800Z,0.00
2018-06-10T00:20:07.997Z,0.00
2018-06-10T00:21:08.210Z,0.00
2018-06-10T00:22:08.407Z,0.00
2018-06-10T00:23:08.616Z,0.00
2018-06-10T00:24:08.830Z,0.00
2018-06-10T00:25:09.034Z,0.00
2018-06-10T00:26:09.220Z,0.00
2018-06-10T00:27:09.407Z,0.00
2018-06-10T00:28:09.628Z,0.00
2018-06-10T00:29:09.826Z,0.00
2018-06-10T00:30:10.039Z,0.00
2018-06-10T00:31:10.221Z,0.00
2018-06-10T00:32:10.405Z,0.00
2018-06-10T00:33:10.616Z,0.00
2018-06-10T00:34:10.812Z,0.00
2018-06-10T00:35:11.007Z,0.00
2018-06-10T00:36:11.225Z,0.00
2018-06-10T00:37:11.425Z,0.00
2018-06-10T00:38:11.637Z,0.00
2018-06-10T00:39:11.849Z,0.00
2018-06-10T00:40:12.084Z,0.00
2018-06-10T00:41:12.379Z,0.00
2018-06-10T00:42:12.453Z,0.00
2018-06-10T00:43:12.666Z,0.00
2018-06-10T00:44:12.852Z,0.00
2018-06-10T00:45:13.055Z,0.00
2018-06-10T00:46:13.241Z,0.00
2018-06-10T00:47:13.437Z,0.00
2018-06-10T00:48:13.636Z,0.00
2018-06-10T00:49:13.827Z,0.00
2018-06-10T00:50:14.036Z,0.00
2018-06-10T00:51:14.261Z,0.00
2018-06-10T00:52:14.468Z,0.00
2018-06-10T00:53:14.690Z,0.00
2018-06-10T00:54:14.876Z,0.00
2018-06-10T00:55:15.090Z,0.00
2018-06-10T00:56:15.290Z,0.00
2018-06-10T00:57:15.485Z,0.00
2018-06-10T00:58:15.750Z,0.00
2018-06-10T00:59:15.816Z,0.00
2018-06-10T01:00:16.027Z,0.00
2018-06-10T01:01:16.221Z,0.00
2018-06-10T01:02:16.422Z,0.00
2018-06-10T01:03:16.604Z,0.00
2018-06-10T01:04:16.797Z,0.00
2018-06-10T01:05:16.998Z,0.00
2018-06-10T01:06:17.183Z,0.00
2018-06-10T01:07:17.374Z,0.00
2018-06-10T01:08:17.566Z,0.00
2018-06-10T01:09:17.786Z,0.00
2018-06-10T01:10:17.986Z,0.00
2018-06-10T01:11:18.183Z,0.00
2018-06-10T01:12:18.369Z,0.00
2018-06-10T01:13:18.564Z,0.00
2018-06-10T01:14:18.766Z,0.00
2018-06-10T01:15:18.974Z,0.00
2018-06-10T01:16:19.165Z,0.00
2018-06-10T01:17:19.362Z,0.00
2018-06-10T01:18:19.569Z,0.00
2018-06-10T01:19:19.803Z,0.00
2018-06-10T01:20:19.986Z,0.00
2018-06-10T01:21:20.176Z,0.00
2018-06-10T01:22:20.387Z,0.00
2018-06-10T01:23:20.580Z,0.00
2018-06-10T01:24:20.775Z,0.00
2018-06-10T01:25:20.961Z,0.00
2018-06-10T01:26:21.172Z,0.00
2018-06-10T01:27:21.364Z,0.00
2018-06-10T01:28:21.561Z,0.00
2018-06-10T01:29:21.774Z,0.00
2018-06-10T01:30:21.965Z,0.00
2018-06-10T01:31:22.161Z,0.00
2018-06-10T01:32:22.349Z,0.00
2018-06-10T01:33:22.544Z,0.00
2018-06-10T01:34:22.751Z,0.00
2018-06-10T01:35:22.959Z,0.00
2018-06-10T01:36:23.148Z,0.00
2018-06-10T01:37:23.432Z,0.00
2018-06-10T01:38:23.517Z,0.00
2018-06-10T01:39:23.725Z,0.00
2018-06-10T01:40:23.937Z,0.00
2018-06-10T01:41:24.148Z,0.00
2018-06-10T01:42:24.348Z,0.00
2018-06-10T01:43:24.549Z,0.00
2018-06-10T01:44:24.755Z,0.00
2018-06-10T01:45:24.953Z,0.00
2018-06-10T01:46:25.162Z,0.00
2018-06-10T01:47:25.392Z,0.00
2018-06-10T01:48:25.597Z,0.00
2018-06-10T01:49:25.796Z,0.00
2018-06-10T01:50:26.004Z,0.00
2018-06-10T01:51:26.217Z,0.00
2018-06-10T01:52:26.423Z,0.00
2018-06-10T01:53:26.621Z,0.00
2018-06-10T01:54:26.836Z,0.00
2018-06-10T01:55:27.038Z,0.00
2018-06-10T01:56:27.250Z,0.00
2018-06-10T01:58:59.362Z,0.00
2018-06-10T01:59:59.543Z,0.00
2018-06-10T02:00:59.753Z,0.00
2018-06-10T02:01:59.948Z,0.00
2018-06-10T02:03:00.135Z,0.00
2018-06-10T02:04:00.349Z,0.00
2018-06-10T02:05:00.549Z,0.00
2018-06-10T02:06:00.744Z,0.00
2018-06-10T02:07:00.933Z,0.00
2018-06-10T02:08:01.146Z,0.00
2018-06-10T02:09:01.368Z,0.00
2018-06-10T02:10:01.580Z,0.00
2018-06-10T02:12:33.673Z,0.00
2018-06-10T02:13:33.847Z,0.00
2018-06-10T02:14:34.056Z,0.00
2018-06-10T02:15:34.246Z,0.00
2018-06-10T02:16:34.461Z,0.00
2018-06-10T02:17:34.648Z,0.00
2018-06-10T02:18:34.859Z,0.00
2018-06-10T02:19:35.069Z,0.00
2018-06-10T02:20:35.277Z,0.00
2018-06-10T02:21:35.485Z,0.00
2018-06-10T02:24:07.575Z,0.00
2018-06-10T02:25:07.778Z,0.00
2018-06-10T02:26:07.983Z,0.00
2018-06-10T02:27:08.192Z,0.00
2018-06-10T02:28:08.391Z,0.00
2018-06-10T02:29:08.599Z,0.00
2018-06-10T02:30:08.800Z,0.00
2018-06-10T02:31:09.007Z,0.00
2018-06-10T02:32:09.223Z,0.00
2018-06-10T02:33:09.418Z,0.00
2018-06-10T02:34:09.609Z,0.00
2018-06-10T02:35:09.828Z,0.00
2018-06-10T02:36:10.078Z,4.00
2018-06-10T02:37:10.291Z,4.00
2018-06-10T02:38:10.499Z,4.00
2018-06-10T02:39:10.693Z,0.00
2018-06-10T02:40:10.905Z,0.00
2018-06-10T02:41:11.109Z,4.00
2018-06-10T02:42:11.304Z,4.00
2018-06-10T02:43:11.498Z,0.00
2018-06-10T02:44:11.702Z,4.00
2018-06-10T02:45:11.914Z,4.00
2018-06-10T02:46:12.103Z,8.00
2018-06-10T02:47:12.295Z,4.00
2018-06-10T02:49:44.610Z,8.00
2018-06-10T02:50:44.784Z,8.00
2018-06-10T02:51:44.983Z,12.00
2018-06-10T02:52:45.194Z,12.00
2018-06-10T02:53:45.477Z,12.00
2018-06-10T02:54:45.614Z,12.00
2018-06-10T02:55:45.824Z,16.00
2018-06-10T02:56:46.039Z,16.00
2018-06-10T02:57:46.251Z,20.00
2018-06-10T02:58:46.438Z,20.00
2018-06-10T02:59:46.640Z,24.00
2018-06-10T03:00:46.834Z,24.00
2018-06-10T03:01:47.043Z,32.00
2018-06-10T03:02:47.239Z,32.00
2018-06-10T03:03:47.446Z,36.00
2018-06-10T03:04:47.658Z,40.00
2018-06-10T03:05:47.843Z,44.00
2018-06-10T03:06:48.038Z,48.00
2018-06-10T03:07:48.236Z,52.00
2018-06-10T03:08:48.418Z,56.00
2018-06-10T03:09:48.622Z,60.00
2018-06-10T03:10:48.814Z,64.00
2018-06-10T03:13:20.940Z,84.00
2018-06-10T03:14:21.114Z,92.00
2018-06-10T03:15:21.328Z,100.00
2018-06-10T03:16:21.539Z,108.00
2018-06-10T03:17:21.729Z,124.00
2018-06-10T03:18:21.947Z,136.00
2018-06-10T03:19:22.154Z,152.00
2018-06-10T03:20:22.353Z,164.00
2018-06-10T03:21:22.572Z,176.00
2018-06-10T03:22:22.777Z,192.00
2018-06-10T03:23:22.958Z,208.00
2018-06-10T03:24:23.146Z,224.00
2018-06-10T03:25:23.349Z,236.00
2018-06-10T03:26:23.543Z,252.00
2018-06-10T03:27:23.755Z,264.00
2018-06-10T03:28:23.941Z,280.00
2018-06-10T03:29:24.129Z,288.00
2018-06-10T03:30:24.321Z,300.00
2018-06-10T03:31:24.507Z,320.00
2018-06-10T03:32:24.722Z,344.00
2018-06-10T03:33:24.902Z,372.00
2018-06-10T03:34:25.094Z,404.00
2018-06-10T03:35:25.300Z,436.00
2018-06-10T03:36:25.510Z,456.00
2018-06-10T03:37:25.724Z,472.00
2018-06-10T03:38:25.931Z,468.00
2018-06-10T03:39:26.124Z,472.00
2018-06-10T03:40:26.334Z,488.00
2018-06-10T03:42:58.432Z,548.00
2018-06-10T03:43:58.616Z,556.00
2018-06-10T03:44:58.825Z,548.00
2018-06-10T03:45:59.021Z,532.00
2018-06-10T03:46:59.224Z,512.00
2018-06-10T03:47:59.411Z,500.00
2018-06-10T03:48:59.613Z,484.00
2018-06-10T03:49:59.826Z,468.00
2018-06-10T03:51:00.032Z,464.00
2018-06-10T03:52:00.236Z,468.00
2018-06-10T03:53:00.433Z,484.00
2018-06-10T03:54:00.644Z,500.00
2018-06-10T03:55:00.858Z,516.00
2018-06-10T03:56:01.066Z,528.00
2018-06-10T03:57:01.262Z,536.00
2018-06-10T03:58:01.481Z,540.00
2018-06-10T03:59:01.672Z,548.00
2018-06-10T04:00:01.877Z,556.00
2018-06-10T04:01:02.098Z,576.00
2018-06-10T04:02:02.306Z,596.00
2018-06-10T04:04:34.401Z,636.00
2018-06-10T04:05:34.580Z,648.00
2018-06-10T04:06:34.776Z,660.00
2018-06-10T04:07:34.991Z,672.00
2018-06-10T04:08:35.184Z,684.00
2018-06-10T04:09:35.395Z,692.00
2018-06-10T04:10:35.583Z,704.00
2018-06-10T04:11:35.792Z,712.00
2018-06-10T04:12:35.997Z,716.00
2018-06-10T04:13:36.202Z,720.00
2018-06-10T04:14:36.407Z,716.00
2018-06-10T04:15:36.613Z,712.00
2018-06-10T04:16:36.833Z,712.00
2018-06-10T04:17:37.056Z,716.00
2018-06-10T04:18:37.270Z,728.00
2018-06-10T04:19:37.493Z,736.00
2018-06-10T04:20:37.700Z,760.00
2018-06-10T04:21:37.903Z,780.00
2018-06-10T04:22:38.160Z,808.00
2018-06-10T04:23:38.300Z,840.00
2018-06-10T04:24:38.500Z,872.00
2018-06-10T04:25:38.713Z,896.00
2018-06-10T04:26:38.915Z,924.00
2018-06-10T04:27:39.118Z,944.00
2018-06-10T04:28:39.322Z,964.00
2018-06-10T04:29:39.519Z,984.00
2018-06-10T04:30:39.735Z,1008.00
2018-06-10T04:33:11.558Z,1108.00
2018-06-10T04:34:11.732Z,1156.00
2018-06-10T04:35:11.938Z,1192.00
2018-06-10T04:36:12.146Z,1224.00
2018-06-10T04:37:12.360Z,1244.00
2018-06-10T04:38:12.554Z,1256.00
2018-06-10T04:39:12.769Z,1280.00
2018-06-10T04:40:12.966Z,1312.00
2018-06-10T04:41:13.253Z,1348.00
2018-06-10T04:42:13.330Z,1388.00
2018-06-10T04:43:13.533Z,1432.00
2018-06-10T04:44:13.730Z,1484.00
2018-06-10T04:45:13.934Z,1528.00
2018-06-10T04:46:14.124Z,1564.00
2018-06-10T04:47:14.380Z,1596.00
2018-06-10T04:48:14.529Z,1628.00
2018-06-10T04:49:14.721Z,1644.00
2018-06-10T04:50:14.924Z,1644.00
2018-06-10T04:51:15.118Z,1644.00
2018-06-10T04:52:15.335Z,1644.00
2018-06-10T04:53:15.526Z,1648.00
2018-06-10T04:54:15.734Z,1648.00
2018-06-10T04:55:15.936Z,1628.00
2018-06-10T04:56:16.129Z,1612.00
2018-06-10T04:57:16.344Z,1604.00
2018-06-10T04:58:16.535Z,1620.00
2018-06-10T04:59:16.728Z,1660.00
2018-06-10T05:00:16.916Z,1728.00
2018-06-10T05:01:17.114Z,1824.00
2018-06-10T05:02:17.313Z,1940.00
2018-06-10T05:03:17.511Z,2064.00
2018-06-10T05:04:17.707Z,2180.00
2018-06-10T05:05:17.897Z,2268.00
2018-06-10T05:06:18.114Z,2328.00
2018-06-10T05:07:18.321Z,2356.00
2018-06-10T05:08:18.532Z,2352.00
2018-06-10T05:09:18.748Z,2324.00
2018-06-10T05:10:18.941Z,2284.00
2018-06-10T05:11:19.156Z,2236.00
2018-06-10T05:12:19.349Z,2204.00
2018-06-10T05:13:19.566Z,2212.00
2018-06-10T05:14:19.770Z,2220.00
2018-06-10T05:15:19.976Z,2212.00
2018-06-10T05:16:20.162Z,2200.00
2018-06-10T05:18:52.266Z,2128.00
2018-06-10T05:19:52.574Z,2084.00
2018-06-10T05:20:52.669Z,2028.00
2018-06-10T05:21:52.855Z,1968.00
2018-06-10T05:22:53.047Z,1904.00
2018-06-10T05:23:53.258Z,1844.00
2018-06-10T05:24:53.451Z,1788.00
2018-06-10T05:25:53.641Z,1732.00
2018-06-10T05:26:53.841Z,1692.00
2018-06-10T05:27:54.052Z,1660.00
2018-06-10T05:28:54.255Z,1636.00
2018-06-10T05:29:54.464Z,1616.00
2018-06-10T05:30:54.676Z,1600.00
2018-06-10T05:31:54.865Z,1584.00
2018-06-10T05:32:55.061Z,1572.00
2018-06-10T05:33:55.255Z,1556.00
2018-06-10T05:34:55.479Z,1544.00
2018-06-10T05:35:55.688Z,1544.00
2018-06-10T05:36:55.873Z,1544.00
2018-06-10T05:37:56.090Z,1556.00
2018-06-10T05:38:56.301Z,1568.00
2018-06-10T05:39:56.495Z,1580.00
2018-06-10T05:40:56.688Z,1592.00
2018-06-10T05:41:56.896Z,1604.00
2018-06-10T05:42:57.106Z,1612.00
2018-06-10T05:43:57.294Z,1620.00
2018-06-10T05:44:57.598Z,1628.00
2018-06-10T05:45:57.677Z,1632.00
2018-06-10T05:46:57.884Z,1644.00
2018-06-10T05:47:58.094Z,1660.00
2018-06-10T05:48:58.305Z,1688.00
2018-06-10T05:49:58.493Z,1712.00
2018-06-10T05:50:58.685Z,1740.00
2018-06-10T05:51:58.876Z,1764.00
2018-06-10T05:54:30.691Z,1808.00
2018-06-10T05:55:30.875Z,1820.00
2018-06-10T05:56:31.084Z,1832.00
2018-06-10T05:57:31.288Z,1848.00
2018-06-10T05:58:31.493Z,1864.00
2018-06-10T05:59:31.697Z,1892.00
2018-06-10T06:00:31.973Z,1920.00
2018-06-10T06:01:32.038Z,1964.00
2018-06-10T06:02:32.238Z,2012.00
2018-06-10T06:03:32.432Z,2068.00
2018-06-10T06:04:32.642Z,2124.00
2018-06-10T06:05:32.831Z,2184.00
2018-06-10T06:06:33.055Z,2244.00
2018-06-10T06:07:33.255Z,2292.00
2018-06-10T06:08:33.474Z,2352.00
2018-06-10T06:09:33.687Z,2412.00
2018-06-10T06:10:33.896Z,2484.00
2018-06-10T06:11:34.093Z,2548.00
2018-06-10T06:12:34.305Z,2624.00
2018-06-10T06:13:34.525Z,2700.00
2018-06-10T06:14:34.714Z,2764.00
2018-06-10T06:15:34.898Z,2808.00
2018-06-10T06:16:35.121Z,2836.00
2018-06-10T06:17:35.322Z,2864.00
2018-06-10T06:18:35.535Z,2880.00
2018-06-10T06:19:35.754Z,2864.00
2018-06-10T06:20:35.947Z,2844.00
2018-06-10T06:21:36.143Z,2892.00
2018-06-10T06:22:36.371Z,2928.00
2018-06-10T06:23:36.531Z,2920.00
2018-06-10T06:24:36.724Z,2980.00
2018-06-10T06:25:36.918Z,3048.00
2018-06-10T06:26:37.108Z,3104.00
2018-06-10T06:27:37.311Z,3156.00
2018-06-10T06:28:37.495Z,3196.00
2018-06-10T06:31:09.594Z,3312.00
2018-06-10T06:32:09.900Z,3360.00
2018-06-10T06:33:09.985Z,3416.00
2018-06-10T06:34:10.175Z,3484.00
2018-06-10T06:35:10.364Z,3556.00
2018-06-10T06:36:10.581Z,3612.00
2018-06-10T06:37:10.780Z,3668.00
2018-06-10T06:38:10.984Z,3708.00
2018-06-10T06:39:11.186Z,3748.00
2018-06-10T06:40:11.389Z,3792.00
2018-06-10T06:41:11.584Z,3828.00
2018-06-10T06:42:11.782Z,3868.00
2018-06-10T06:43:12.006Z,3908.00
2018-06-10T06:44:12.217Z,3932.00
2018-06-10T06:45:12.430Z,3932.00
2018-06-10T06:46:12.648Z,3932.00
2018-06-10T06:47:12.900Z,3936.00
2018-06-10T06:48:13.060Z,3948.00
2018-06-10T06:49:13.252Z,3988.00
2018-06-10T06:50:13.509Z,4056.00
2018-06-10T06:51:13.698Z,4160.00
2018-06-10T06:52:13.900Z,4284.00
2018-06-10T06:53:14.110Z,4440.00
2018-06-10T06:54:14.310Z,4612.00
2018-06-10T06:55:14.523Z,4788.00
2018-06-10T06:56:14.734Z,4980.00
2018-06-10T06:57:14.928Z,5196.00
2018-06-10T06:58:15.184Z,5416.00
2018-06-10T06:59:15.286Z,5648.00
2018-06-10T07:00:15.487Z,5900.00
2018-06-10T07:01:15.697Z,6200.00
2018-06-10T07:02:15.912Z,6544.00
2018-06-10T07:03:16.134Z,6912.00
2018-06-10T07:04:16.379Z,7308.00
2018-06-10T07:05:16.521Z,7732.00
2018-06-10T07:06:16.714Z,8120.00
2018-06-10T07:07:16.904Z,8424.00
2018-06-10T07:08:17.110Z,8684.00
2018-06-10T07:09:17.325Z,8828.00
2018-06-10T07:11:49.451Z,8524.00
2018-06-10T07:12:49.628Z,8196.00
2018-06-10T07:13:49.844Z,7828.00
2018-06-10T07:14:50.060Z,7600.00
2018-06-10T07:15:50.247Z,7552.00
2018-06-10T07:16:50.461Z,7648.00
2018-06-10T07:17:50.654Z,7840.00
2018-06-10T07:18:50.865Z,8064.00
2018-06-10T07:19:51.078Z,8180.00
2018-06-10T07:20:51.277Z,8380.00
2018-06-10T07:21:51.483Z,8272.00
2018-06-10T07:22:51.695Z,8180.00
2018-06-10T07:23:51.904Z,8104.00
2018-06-10T07:24:52.095Z,8024.00
2018-06-10T07:25:52.287Z,7932.00
2018-06-10T07:26:52.489Z,7856.00
2018-06-10T07:27:52.704Z,7848.00
2018-06-10T07:28:52.914Z,7896.00
2018-06-10T07:29:53.143Z,7984.00
2018-06-10T07:30:53.347Z,8128.00
2018-06-10T07:31:53.561Z,8296.00
2018-06-10T07:32:53.754Z,8504.00
2018-06-10T07:35:25.928Z,9180.00
2018-06-10T07:36:25.984Z,9488.00
2018-06-10T07:37:26.172Z,9892.00
2018-06-10T07:38:26.386Z,10324.00
2018-06-10T07:39:26.607Z,10796.00
2018-06-10T07:40:26.812Z,11280.00
2018-06-10T07:41:27.002Z,11780.00
2018-06-10T07:42:27.209Z,12220.00
2018-06-10T07:43:27.416Z,12604.00
2018-06-10T07:44:27.626Z,12916.00
2018-06-10T07:45:27.828Z,13068.00
2018-06-10T07:46:28.050Z,13192.00
2018-06-10T07:47:28.253Z,13340.00
2018-06-10T07:48:28.513Z,13568.00
2018-06-10T07:49:28.662Z,13872.00
2018-06-10T07:50:28.848Z,14312.00
2018-06-10T07:51:29.065Z,14900.00
2018-06-10T07:52:29.265Z,15872.00
2018-06-10T07:53:29.468Z,16768.00
2018-06-10T07:54:29.676Z,17792.00
2018-06-10T07:55:29.889Z,18688.00
2018-06-10T07:56:30.106Z,21216.00
2018-06-10T07:57:30.310Z,21216.00
2018-06-10T07:58:30.526Z,19808.00
2018-06-10T07:59:30.745Z,17792.00
2018-06-10T08:00:30.956Z,17152.00
2018-06-10T08:01:31.177Z,16576.00
2018-06-10T08:02:31.400Z,16288.00
2018-06-10T08:03:31.616Z,19520.00
2018-06-10T08:04:31.831Z,18976.00
2018-06-10T08:05:32.054Z,15680.00
2018-06-10T08:06:32.245Z,13116.00
2018-06-10T08:07:32.456Z,11504.00
2018-06-10T08:08:32.670Z,10096.00
2018-06-10T08:09:32.876Z,8924.00
2018-06-10T08:10:33.094Z,7772.00
2018-06-10T08:11:33.302Z,6412.00
2018-06-10T08:12:33.495Z,5208.00
2018-06-10T08:13:33.709Z,4232.00
2018-06-10T08:14:33.934Z,3492.00
2018-06-10T08:17:05.780Z,2544.00
2018-06-10T08:18:06.044Z,2348.00
2018-06-10T08:19:06.138Z,2260.00
2018-06-10T08:20:06.337Z,2236.00
2018-06-10T08:21:06.542Z,2232.00
2018-06-10T08:22:06.762Z,2248.00
2018-06-10T08:23:06.974Z,2300.00
2018-06-10T08:24:07.170Z,2352.00
2018-06-10T08:25:07.362Z,2384.00
2018-06-10T08:26:07.574Z,2428.00
2018-06-10T08:27:07.793Z,2492.00
2018-06-10T08:28:08.005Z,2580.00
2018-06-10T08:29:08.211Z,2656.00
2018-06-10T08:30:08.413Z,2744.00
2018-06-10T08:31:08.613Z,2812.00
2018-06-10T08:32:08.827Z,2876.00
2018-06-10T08:33:09.037Z,2936.00
2018-06-10T08:34:09.248Z,2996.00
2018-06-10T08:35:09.462Z,3048.00
2018-06-10T08:36:09.670Z,3100.00
2018-06-10T08:37:09.836Z,3156.00
2018-06-10T08:38:10.045Z,3204.00
2018-06-10T08:39:10.257Z,3248.00
2018-06-10T08:40:10.462Z,3308.00
2018-06-10T08:41:10.664Z,3380.00
2018-06-10T08:42:10.884Z,3468.00
2018-06-10T08:43:11.137Z,3572.00
2018-06-10T08:44:11.379Z,3684.00
2018-06-10T08:45:11.542Z,3808.00
2018-06-10T08:46:11.761Z,3936.00
2018-06-10T08:47:11.960Z,4072.00
2018-06-10T08:48:12.175Z,4216.00
2018-06-10T08:49:12.370Z,4356.00
2018-06-10T08:50:12.587Z,4492.00
2018-06-10T08:51:12.805Z,4624.00
2018-06-10T08:52:13.002Z,4744.00
2018-06-10T08:53:13.224Z,4876.00
2018-06-10T08:54:13.434Z,5024.00
2018-06-10T08:55:13.630Z,5204.00
2018-06-10T08:56:13.816Z,5408.00
2018-06-10T08:57:14.020Z,5640.00
2018-06-10T08:58:14.219Z,5884.00
2018-06-10T08:59:14.438Z,6180.00
2018-06-10T09:00:14.636Z,6516.00
2018-06-10T09:01:14.855Z,6916.00
2018-06-10T09:02:15.075Z,7396.00
2018-06-10T09:03:15.296Z,7948.00
2018-06-10T09:04:15.502Z,8544.00
2018-06-10T09:05:15.705Z,9152.00
2018-06-10T09:06:15.915Z,9712.00
2018-06-10T09:07:16.129Z,10232.00
2018-06-10T09:08:16.347Z,10724.00
2018-06-10T09:09:16.544Z,11176.00
2018-06-10T09:10:16.742Z,11672.00
2018-06-10T09:11:16.958Z,12160.00
2018-06-10T09:12:17.169Z,12536.00
2018-06-10T09:13:17.368Z,12744.00
2018-06-10T09:14:17.579Z,12692.00
2018-06-10T09:15:17.774Z,12488.00
2018-06-10T09:17:49.603Z,11676.00
2018-06-10T09:18:49.790Z,11332.00
2018-06-10T09:19:50.007Z,11064.00
2018-06-10T09:20:50.215Z,10932.00
2018-06-10T09:21:50.419Z,10864.00
2018-06-10T09:22:50.637Z,10796.00
2018-06-10T09:23:50.846Z,10792.00
2018-06-10T09:24:51.063Z,10808.00
2018-06-10T09:25:51.248Z,10792.00
2018-06-10T09:26:51.456Z,11020.00
2018-06-10T09:27:51.668Z,11404.00
2018-06-10T09:28:51.889Z,11736.00
2018-06-10T09:29:52.094Z,11908.00
2018-06-10T09:30:52.304Z,12192.00
2018-06-10T09:31:52.528Z,13132.00
2018-06-10T09:32:52.731Z,14120.00
2018-06-10T09:33:52.924Z,13816.00
2018-06-10T09:34:53.136Z,13852.00
2018-06-10T09:35:53.352Z,13812.00
2018-06-10T09:36:53.554Z,13740.00
2018-06-10T09:37:53.757Z,13640.00
2018-06-10T09:38:53.993Z,13492.00
2018-06-10T09:39:54.203Z,13412.00
2018-06-10T09:40:54.398Z,13348.00
2018-06-10T09:41:54.600Z,13408.00
2018-06-10T09:42:54.818Z,13688.00
2018-06-10T09:43:55.037Z,14208.00
2018-06-10T09:44:55.239Z,14936.00
2018-06-10T09:45:55.457Z,16064.00
2018-06-10T09:46:55.647Z,17184.00
2018-06-10T09:47:55.859Z,18720.00
2018-06-10T09:48:56.056Z,24000.00
2018-06-10T09:49:56.324Z,21344.00
2018-06-10T09:50:56.492Z,22688.00
2018-06-10T09:51:56.682Z,25952.00
2018-06-10T09:52:56.896Z,31200.00
2018-06-10T09:53:57.121Z,30624.00
2018-06-10T09:54:57.328Z,25792.00
2018-06-10T09:55:57.536Z,26048.00
2018-06-10T09:56:57.731Z,26144.00
2018-06-10T09:57:57.922Z,27648.00
2018-06-10T09:58:58.151Z,29056.00
2018-06-10T09:59:58.360Z,29600.00
2018-06-10T10:00:58.562Z,37888.00
2018-06-10T10:01:58.770Z,50688.00
2018-06-10T10:02:58.967Z,36416.00
2018-06-10T10:03:59.183Z,31488.00
2018-06-10T10:04:59.407Z,31392.00
2018-06-10T10:05:59.618Z,31968.00
2018-06-10T10:06:59.827Z,31808.00
2018-06-10T10:08:00.040Z,32000.00
2018-06-10T10:09:00.237Z,32768.00
2018-06-10T10:10:00.441Z,30528.00
2018-06-10T10:11:00.646Z,31776.00
2018-06-10T10:12:00.844Z,29056.00
2018-06-10T10:13:01.066Z,27968.00
2018-06-10T10:14:01.288Z,28192.00
2018-06-10T10:15:01.564Z,30784.00
2018-06-10T10:17:33.838Z,44160.00
2018-06-10T10:18:33.785Z,30144.00
2018-06-10T10:19:33.996Z,27424.00
2018-06-10T10:20:34.205Z,28256.00
2018-06-10T10:21:34.421Z,29408.00
2018-06-10T10:22:34.633Z,33824.00
2018-06-10T10:23:34.850Z,35264.00
2018-06-10T10:24:35.074Z,31488.00
2018-06-10T10:25:35.303Z,28224.00
2018-06-10T10:26:35.466Z,26240.00
2018-06-10T10:29:07.602Z,29120.00
2018-06-10T10:30:07.764Z,27456.00
2018-06-10T10:31:07.964Z,26464.00
2018-06-10T10:32:08.180Z,26304.00
2018-06-10T10:33:08.373Z,26208.00
2018-06-10T10:34:08.588Z,27200.00
2018-06-10T10:35:08.782Z,30272.00
2018-06-10T10:36:08.996Z,34560.00
2018-06-10T10:37:09.220Z,37216.00
2018-06-10T10:38:09.457Z,38112.00
2018-06-10T10:39:09.663Z,36096.00
2018-06-10T10:40:09.883Z,38112.00
2018-06-10T10:41:10.071Z,38304.00
2018-06-10T10:42:10.272Z,37312.00
2018-06-10T10:43:10.463Z,36128.00
2018-06-10T10:44:10.658Z,35200.00
2018-06-10T10:45:10.878Z,34336.00
2018-06-10T10:46:11.099Z,32768.00
2018-06-10T10:47:11.319Z,33248.00
2018-06-10T10:48:11.520Z,32704.00
2018-06-10T10:49:11.754Z,28064.00
2018-06-10T10:50:11.949Z,25632.00
2018-06-10T10:51:12.166Z,25984.00
2018-06-10T10:52:12.354Z,26144.00
2018-06-10T10:53:12.571Z,25792.00
2018-06-10T10:54:12.773Z,24288.00
2018-06-10T10:55:12.973Z,22912.00
2018-06-10T10:56:13.187Z,22912.00
2018-06-10T10:57:13.401Z,25152.00
2018-06-10T10:58:13.612Z,29152.00
2018-06-10T10:59:13.813Z,28160.00
2018-06-10T11:00:14.024Z,28768.00
2018-06-10T11:01:14.222Z,26976.00
2018-06-10T11:02:14.451Z,26848.00
2018-06-10T11:03:14.658Z,26784.00
2018-06-10T11:04:14.889Z,23840.00
2018-06-10T11:05:15.103Z,23040.00
2018-06-10T11:06:15.297Z,22752.00
2018-06-10T11:07:15.515Z,23104.00
2018-06-10T11:08:15.802Z,24864.00
2018-06-10T11:09:15.946Z,24576.00
2018-06-10T11:10:16.168Z,24512.00
2018-06-10T11:11:16.378Z,22560.00
2018-06-10T11:12:16.597Z,21280.00
2018-06-10T11:13:16.804Z,20864.00
2018-06-10T11:14:17.024Z,23584.00
2018-06-10T11:15:17.227Z,25568.00
2018-06-10T11:16:17.478Z,25280.00
2018-06-10T11:17:17.685Z,24448.00
2018-06-10T11:18:17.883Z,24416.00
2018-06-10T11:19:18.084Z,23072.00
2018-06-10T11:20:18.335Z,21600.00
2018-06-10T11:21:18.521Z,21408.00
2018-06-10T11:22:18.723Z,20672.00
2018-06-10T11:23:18.940Z,20544.00
2018-06-10T11:24:19.169Z,20416.00
2018-06-10T11:25:19.379Z,22272.00
2018-06-10T11:26:19.597Z,22464.00
2018-06-10T11:27:19.856Z,21984.00
2018-06-10T11:28:20.022Z,21248.00
2018-06-10T11:29:20.250Z,20832.00
2018-06-10T11:30:20.469Z,20384.00
2018-06-10T11:31:20.687Z,21056.00
2018-06-10T11:32:20.910Z,22528.00
2018-06-10T11:33:21.137Z,21120.00
2018-06-10T11:34:21.361Z,21888.00
2018-06-10T11:35:21.546Z,22944.00
2018-06-10T11:36:21.760Z,22528.00
2018-06-10T11:37:21.962Z,22112.00
2018-06-10T11:38:22.183Z,22176.00
2018-06-10T11:39:22.384Z,22464.00
2018-06-10T11:40:22.578Z,22656.00
2018-06-10T11:41:22.770Z,22784.00
2018-06-10T11:42:23.093Z,22752.00
2018-06-10T11:43:23.179Z,22368.00
2018-06-10T11:44:23.377Z,20608.00
2018-06-10T11:45:23.587Z,18912.00
2018-06-10T11:46:23.814Z,18944.00
2018-06-10T11:47:24.032Z,19616.00
2018-06-10T11:48:24.251Z,20704.00
2018-06-10T11:49:24.469Z,20992.00
2018-06-10T11:50:24.685Z,20800.00
2018-06-10T11:51:24.894Z,22144.00
2018-06-10T11:52:25.119Z,21216.00
2018-06-10T11:53:25.325Z,22144.00
2018-06-10T11:54:25.551Z,22752.00
2018-06-10T11:56:57.952Z,21888.00
2018-06-10T11:57:57.899Z,21472.00
2018-06-10T11:58:58.122Z,21536.00
2018-06-10T11:59:58.341Z,21568.00
2018-06-10T12:00:58.551Z,21408.00
2018-06-10T12:01:58.801Z,20672.00
2018-06-10T12:02:58.977Z,20800.00
2018-06-10T12:03:59.183Z,18496.00
2018-06-10T12:04:59.376Z,17728.00
2018-06-10T12:05:59.569Z,17408.00
2018-06-10T12:06:59.788Z,17408.00
2018-06-10T12:08:00.100Z,18144.00
2018-06-10T12:09:00.182Z,19040.00
2018-06-10T12:10:00.389Z,18912.00
2018-06-10T12:11:00.616Z,19680.00
2018-06-10T12:12:00.828Z,20768.00
2018-06-10T12:13:01.045Z,21600.00
2018-06-10T12:14:01.220Z,22496.00
2018-06-10T12:15:01.413Z,23104.00
2018-06-10T12:16:01.636Z,22848.00
2018-06-10T12:17:01.834Z,21888.00
2018-06-10T12:18:02.053Z,21088.00
2018-06-10T12:19:02.254Z,20800.00
2018-06-10T12:20:02.458Z,21856.00
2018-06-10T12:21:02.655Z,21344.00
2018-06-10T12:22:02.848Z,21088.00
2018-06-10T12:23:03.063Z,20800.00
2018-06-10T12:24:03.290Z,20480.00
2018-06-10T12:25:03.515Z,20064.00
2018-06-10T12:26:03.736Z,19232.00
2018-06-10T12:27:03.958Z,17952.00
2018-06-10T12:28:04.169Z,16896.00
2018-06-10T12:29:04.369Z,16576.00
2018-06-10T12:30:04.592Z,16640.00
2018-06-10T12:31:04.802Z,16352.00
2018-06-10T12:32:05.019Z,16576.00
2018-06-10T12:33:05.193Z,17184.00
2018-06-10T12:34:05.487Z,19008.00
2018-06-10T12:35:05.579Z,19968.00
2018-06-10T12:36:05.780Z,21376.00
2018-06-10T12:37:06.009Z,23424.00
2018-06-10T12:38:06.213Z,22464.00
2018-06-10T12:39:06.431Z,21696.00
2018-06-10T12:41:38.548Z,20448.00
2018-06-10T12:42:38.732Z,20544.00
2018-06-10T12:43:38.927Z,21440.00
2018-06-10T12:44:39.143Z,20768.00
2018-06-10T12:45:39.333Z,18208.00
2018-06-10T12:46:39.527Z,16344.00
2018-06-10T12:47:39.905Z,15496.00
2018-06-10T12:48:39.974Z,16192.00
2018-06-10T12:49:40.174Z,15148.00